sensor_id;sensor_type;location;lat;lon;timestamp;pressure;altitude;pressure_sealevel;temperature;humidity
29239;BME280;16267;48.194;11.546;2023-11-18T00:01:33;96662.03;;;5.54;99.55
29239;BME280;16267;48.194;11.546;2023-11-18T00:04:00;96667.84;;;5.60;100.00
29239;BME280;16267;48.194;11.546;2023-11-18T00:06:26;96664.81;;;5.62;100.00
29239;BME280;16267;48.194;11.546;2023-11-18T00:08:52;96661.38;;;5.61;99.62
29239;BME280;16267;48.194;11.546;2023-11-18T00:11:18;96658.72;;;5.61;99.51
29239;BME280;16267;48.194;11.546;2023-11-18T00:13:45;96665.94;;;5.61;99.32
29239;BME280;16267;48.194;11.546;2023-11-18T00:16:11;96668.94;;;5.59;100.00
29239;BME280;16267;48.194;11.546;2023-11-18T00:18:41;96663.97;;;5.57;99.57
29239;BME280;16267;48.194;11.546;2023-11-18T00:21:07;96663.56;;;5.55;100.00
29239;BME280;16267;48.194;11.546;2023-11-18T00:23:34;96670.78;;;5.55;100.00
29239;BME280;16267;48.194;11.546;2023-11-18T00:26:00;96672.38;;;5.59;100.00
29239;BME280;16267;48.194;11.546;2023-11-18T00:28:27;96668.94;;;5.59;99.83
29239;BME280;16267;48.194;11.546;2023-11-18T00:30:54;96661.31;;;5.57;99.49
29239;BME280;16267;48.194;11.546;2023-11-18T00:33:20;96663.97;;;5.57;100.00
29239;BME280;16267;48.194;11.546;2023-11-18T00:35:46;96661.09;;;5.47;99.48
29239;BME280;16267;48.194;11.546;2023-11-18T00:38:12;96669.53;;;5.49;100.00
29239;BME280;16267;48.194;11.546;2023-11-18T00:40:38;96672.84;;;5.46;100.00
29239;BME280;16267;48.194;11.546;2023-11-18T00:43:04;96672.72;;;5.39;100.00
29239;BME280;16267;48.194;11.546;2023-11-18T00:45:30;96680.00;;;5.42;100.00
29239;BME280;16267;48.194;11.546;2023-11-18T00:47:56;96677.97;;;5.35;100.00
29239;BME280;16267;48.194;11.546;2023-11-18T00:50:23;96681.31;;;5.32;100.00
29239;BME280;16267;48.194;11.546;2023-11-18T00:52:49;96682.88;;;5.33;100.00
29239;BME280;16267;48.194;11.546;2023-11-18T00:55:16;96677.19;;;5.34;100.00
29239;BME280;16267;48.194;11.546;2023-11-18T00:57:45;96684.41;;;5.34;100.00
29239;BME280;16267;48.194;11.546;2023-11-18T01:00:15;96680.66;;;5.35;100.00
29239;BME280;16267;48.194;11.546;2023-11-18T01:02:48;96680.97;;;5.33;100.00
29239;BME280;16267;48.194;11.546;2023-11-18T01:05:15;96677.19;;;5.34;100.00
29239;BME280;16267;48.194;11.546;2023-11-18T01:07:41;96682.25;;;5.40;100.00
29239;BME280;16267;48.194;11.546;2023-11-18T01:10:09;96685.75;;;5.44;100.00
29239;BME280;16267;48.194;11.546;2023-11-18T01:12:39;96684.22;;;5.43;99.90
29239;BME280;16267;48.194;11.546;2023-11-18T01:15:07;96689.25;;;5.48;100.00
29239;BME280;16267;48.194;11.546;2023-11-18T01:17:34;96689.78;;;5.37;98.91
29239;BME280;16267;48.194;11.546;2023-11-18T01:20:00;96687.72;;;5.47;100.00
29239;BME280;16267;48.194;11.546;2023-11-18T01:22:32;96687.72;;;5.47;100.00
29239;BME280;16267;48.194;11.546;2023-11-18T01:25:00;96687.28;;;5.45;98.65
29239;BME280;16267;48.194;11.546;2023-11-18T01:27:27;96684.28;;;5.46;99.85
29239;BME280;16267;48.194;11.546;2023-11-18T01:29:53;96695.13;;;5.37;98.96
29239;BME280;16267;48.194;11.546;2023-11-18T01:32:19;96698.72;;;5.45;100.00
29239;BME280;16267;48.194;11.546;2023-11-18T01:34:45;96705.94;;;5.45;99.91
29239;BME280;16267;48.194;11.546;2023-11-18T01:37:16;96703.47;;;5.36;98.01
29239;BME280;16267;48.194;11.546;2023-11-18T01:39:43;96699.41;;;5.42;98.50
29239;BME280;16267;48.194;11.546;2023-11-18T01:42:09;96705.50;;;5.43;98.70
29239;BME280;16267;48.194;11.546;2023-11-18T01:44:35;96700.09;;;5.39;98.78
29239;BME280;16267;48.194;11.546;2023-11-18T01:47:04;96713.56;;;5.27;97.73
29239;BME280;16267;48.194;11.546;2023-11-18T01:49:34;96701.41;;;5.10;99.29
29239;BME280;16267;48.194;11.546;2023-11-18T01:52:03;96712.00;;;5.26;100.00
29239;BME280;16267;48.194;11.546;2023-11-18T01:54:29;96710.97;;;5.30;100.00
29239;BME280;16267;48.194;11.546;2023-11-18T01:56:56;96708.03;;;5.35;99.97
29239;BME280;16267;48.194;11.546;2023-11-18T01:59:23;96714.31;;;5.27;97.92
29239;BME280;16267;48.194;11.546;2023-11-18T02:01:53;96715.84;;;5.28;98.29
29239;BME280;16267;48.194;11.546;2023-11-18T02:04:20;96720.16;;;5.33;99.98
29239;BME280;16267;48.194;11.546;2023-11-18T02:06:49;96715.91;;;5.32;98.38
29239;BME280;16267;48.194;11.546;2023-11-18T02:09:16;96720.91;;;5.33;98.13
29239;BME280;16267;48.194;11.546;2023-11-18T02:11:57;96722.88;;;5.36;98.76
29239;BME280;16267;48.194;11.546;2023-11-18T02:14:27;96719.38;;;5.32;98.06
29239;BME280;16267;48.194;11.546;2023-11-18T02:16:57;96712.22;;;5.36;99.55
29239;BME280;16267;48.194;11.546;2023-11-18T02:19:25;96726.66;;;5.35;98.18
29239;BME280;16267;48.194;11.546;2023-11-18T02:21:56;96721.69;;;5.34;97.84
29239;BME280;16267;48.194;11.546;2023-11-18T02:24:26;96720.84;;;5.30;97.80
29239;BME280;16267;48.194;11.546;2023-11-18T02:26:54;96717.41;;;5.29;99.34
29239;BME280;16267;48.194;11.546;2023-11-18T02:29:23;96724.34;;;5.34;99.02
29239;BME280;16267;48.194;11.546;2023-11-18T02:31:53;96722.09;;;5.36;99.57
29239;BME280;16267;48.194;11.546;2023-11-18T02:34:26;96718.69;;;5.35;99.17
29239;BME280;16267;48.194;11.546;2023-11-18T02:36:55;96715.31;;;5.39;98.93
29239;BME280;16267;48.194;11.546;2023-11-18T02:39:35;96722.53;;;5.38;98.09
29239;BME280;16267;48.194;11.546;2023-11-18T02:42:04;96721.69;;;5.34;97.94
29239;BME280;16267;48.194;11.546;2023-11-18T02:44:35;96725.53;;;5.36;97.96
29239;BME280;16267;48.194;11.546;2023-11-18T02:47:03;96719.44;;;5.36;98.05
29239;BME280;16267;48.194;11.546;2023-11-18T02:49:31;96721.75;;;5.37;98.21
29239;BME280;16267;48.194;11.546;2023-11-18T02:51:57;96722.88;;;5.36;98.30
29239;BME280;16267;48.194;11.546;2023-11-18T02:54:24;96720.97;;;5.37;98.03
29239;BME280;16267;48.194;11.546;2023-11-18T02:56:50;96713.75;;;5.37;99.22
29239;BME280;16267;48.194;11.546;2023-11-18T02:59:17;96725.19;;;5.38;99.03
29239;BME280;16267;48.194;11.546;2023-11-18T03:01:43;96724.53;;;5.25;97.77
29239;BME280;16267;48.194;11.546;2023-11-18T03:04:10;96725.03;;;5.31;99.06
29239;BME280;16267;48.194;11.546;2023-11-18T03:06:36;96723.84;;;5.28;98.63
29239;BME280;16267;48.194;11.546;2023-11-18T03:09:03;96725.47;;;5.33;99.03
29239;BME280;16267;48.194;11.546;2023-11-18T03:11:33;96723.13;;;5.31;99.14
29239;BME280;16267;48.194;11.546;2023-11-18T03:13:59;96723.06;;;5.28;98.44
29239;BME280;16267;48.194;11.546;2023-11-18T03:16:26;96733.03;;;5.31;99.04
29239;BME280;16267;48.194;11.546;2023-11-18T03:18:53;96735.34;;;5.32;99.06
29239;BME280;16267;48.194;11.546;2023-11-18T03:21:20;96733.09;;;5.34;98.72
29239;BME280;16267;48.194;11.546;2023-11-18T03:23:46;96742.28;;;5.37;98.89
29239;BME280;16267;48.194;11.546;2023-11-18T03:26:13;96743.03;;;5.37;98.58
29239;BME280;16267;48.194;11.546;2023-11-18T03:28:40;96743.91;;;5.42;99.67
29239;BME280;16267;48.194;11.546;2023-11-18T03:33:35;96747.97;;;5.35;96.70
29239;BME280;16267;48.194;11.546;2023-11-18T03:36:01;96750.75;;;5.43;98.50
29239;BME280;16267;48.194;11.546;2023-11-18T03:38:27;96751.56;;;5.43;97.62
29239;BME280;16267;48.194;11.546;2023-11-18T03:40:55;96752.91;;;5.37;96.56
29239;BME280;16267;48.194;11.546;2023-11-18T03:43:24;96752.66;;;5.42;98.47
29239;BME280;16267;48.194;11.546;2023-11-18T03:45:50;96748.09;;;5.43;97.23
29239;BME280;16267;48.194;11.546;2023-11-18T03:48:18;96762.47;;;5.38;96.40
29239;BME280;16267;48.194;11.546;2023-11-18T03:50:44;96761.00;;;5.41;97.53
29239;BME280;16267;48.194;11.546;2023-11-18T03:53:11;96766.72;;;5.43;97.89
29239;BME280;16267;48.194;11.546;2023-11-18T03:55:37;96771.28;;;5.42;97.35
29239;BME280;16267;48.194;11.546;2023-11-18T03:58:04;96770.09;;;5.40;97.38
29239;BME280;16267;48.194;11.546;2023-11-18T04:00:30;96779.97;;;5.39;97.12
29239;BME280;16267;48.194;11.546;2023-11-18T04:02:57;96781.94;;;5.42;98.15
29239;BME280;16267;48.194;11.546;2023-11-18T04:05:24;96784.16;;;5.40;97.60
29239;BME280;16267;48.194;11.546;2023-11-18T04:07:50;96783.66;;;5.34;96.94
29239;BME280;16267;48.194;11.546;2023-11-18T04:10:16;96780.66;;;5.36;97.68
29239;BME280;16267;48.194;11.546;2023-11-18T04:12:44;96779.53;;;5.37;98.07
29239;BME280;16267;48.194;11.546;2023-11-18T04:15:14;96774.22;;;5.37;99.16
29239;BME280;16267;48.194;11.546;2023-11-18T04:17:41;96770.72;;;5.33;98.32
29239;BME280;16267;48.194;11.546;2023-11-18T04:20:10;96762.22;;;5.27;98.45
29239;BME280;16267;48.194;11.546;2023-11-18T04:22:43;96771.91;;;5.35;99.93
29239;BME280;16267;48.194;11.546;2023-11-18T04:25:11;96770.28;;;5.31;98.46
29239;BME280;16267;48.194;11.546;2023-11-18T04:27:40;96772.19;;;5.30;98.85
29239;BME280;16267;48.194;11.546;2023-11-18T04:30:07;96770.13;;;5.24;99.33
29239;BME280;16267;48.194;11.546;2023-11-18T04:32:34;96768.31;;;5.28;99.57
29239;BME280;16267;48.194;11.546;2023-11-18T04:35:01;96763.31;;;5.26;98.86
29239;BME280;16267;48.194;11.546;2023-11-18T04:37:35;96776.22;;;5.24;98.41
29239;BME280;16267;48.194;11.546;2023-11-18T04:40:02;96762.81;;;5.21;98.42
29239;BME280;16267;48.194;11.546;2023-11-18T04:42:29;96767.56;;;5.27;100.00
29239;BME280;16267;48.194;11.546;2023-11-18T04:44:57;96759.56;;;5.27;98.75
29239;BME280;16267;48.194;11.546;2023-11-18T04:47:23;96758.09;;;5.30;98.89
29239;BME280;16267;48.194;11.546;2023-11-18T04:49:51;96756.97;;;5.31;98.50
29239;BME280;16267;48.194;11.546;2023-11-18T04:52:18;96763.84;;;5.32;98.12
29239;BME280;16267;48.194;11.546;2023-11-18T04:54:44;96760.84;;;5.33;98.01
29239;BME280;16267;48.194;11.546;2023-11-18T04:57:14;96762.03;;;5.36;98.68
29239;BME280;16267;48.194;11.546;2023-11-18T04:59:41;96768.56;;;5.39;98.28
29239;BME280;16267;48.194;11.546;2023-11-18T05:02:07;96761.66;;;5.37;97.48
29239;BME280;16267;48.194;11.546;2023-11-18T05:04:33;96766.22;;;5.37;96.98
29239;BME280;16267;48.194;11.546;2023-11-18T05:06:59;96771.16;;;5.35;97.37
29239;BME280;16267;48.194;11.546;2023-11-18T05:09:25;96764.34;;;5.37;98.37
29239;BME280;16267;48.194;11.546;2023-11-18T05:11:52;96772.00;;;5.39;98.08
29239;BME280;16267;48.194;11.546;2023-11-18T05:14:18;96773.44;;;5.36;96.81
29239;BME280;16267;48.194;11.546;2023-11-18T05:16:45;96779.22;;;5.39;97.74
29239;BME280;16267;48.194;11.546;2023-11-18T05:19:11;96768.56;;;5.39;97.83
29239;BME280;16267;48.194;11.546;2023-11-18T05:21:37;96773.19;;;5.42;98.11
29239;BME280;16267;48.194;11.546;2023-11-18T05:24:03;96765.97;;;5.42;97.07
29239;BME280;16267;48.194;11.546;2023-11-18T05:26:30;96756.50;;;5.45;98.10
29239;BME280;16267;48.194;11.546;2023-11-18T05:28:56;96749.66;;;5.44;97.01
29239;BME280;16267;48.194;11.546;2023-11-18T05:31:22;96742.06;;;5.46;97.33
29239;BME280;16267;48.194;11.546;2023-11-18T05:33:48;96761.16;;;5.48;97.49
29239;BME280;16267;48.194;11.546;2023-11-18T05:36:17;96744.06;;;5.49;97.29
29239;BME280;16267;48.194;11.546;2023-11-18T05:38:53;96757.28;;;5.45;95.33
29239;BME280;16267;48.194;11.546;2023-11-18T05:41:20;96749.22;;;5.42;95.04
29239;BME280;16267;48.194;11.546;2023-11-18T05:43:54;96750.34;;;5.41;95.16
29239;BME280;16267;48.194;11.546;2023-11-18T05:46:23;96755.75;;;5.44;96.89
29239;BME280;16267;48.194;11.546;2023-11-18T05:48:55;96753.03;;;5.41;95.78
29239;BME280;16267;48.194;11.546;2023-11-18T05:51:23;96762.88;;;5.40;96.30
29239;BME280;16267;48.194;11.546;2023-11-18T05:53:50;96757.97;;;5.42;97.42
29239;BME280;16267;48.194;11.546;2023-11-18T05:56:18;96762.72;;;5.33;95.72
29239;BME280;16267;48.194;11.546;2023-11-18T05:58:45;96775.69;;;5.34;97.33
29239;BME280;16267;48.194;11.546;2023-11-18T06:01:12;96771.16;;;5.35;97.75
29239;BME280;16267;48.194;11.546;2023-11-18T06:03:40;96774.97;;;5.37;98.09
29239;BME280;16267;48.194;11.546;2023-11-18T06:06:08;96779.13;;;5.35;96.99
29239;BME280;16267;48.194;11.546;2023-11-18T06:08:36;96788.66;;;5.36;97.48
29239;BME280;16267;48.194;11.546;2023-11-18T06:11:05;96793.22;;;5.35;96.89
29239;BME280;16267;48.194;11.546;2023-11-18T06:13:40;96806.03;;;5.30;96.53
29239;BME280;16267;48.194;11.546;2023-11-18T06:16:09;96803.34;;;5.30;97.76
29239;BME280;16267;48.194;11.546;2023-11-18T06:18:44;96799.75;;;5.22;97.05
29239;BME280;16267;48.194;11.546;2023-11-18T06:21:15;96799.75;;;5.22;98.07
29239;BME280;16267;48.194;11.546;2023-11-18T06:23:42;96794.69;;;5.17;98.18
29239;BME280;16267;48.194;11.546;2023-11-18T06:26:09;96807.41;;;5.24;99.35
29239;BME280;16267;48.194;11.546;2023-11-18T06:28:39;96806.34;;;5.28;99.76
29239;BME280;16267;48.194;11.546;2023-11-18T06:31:06;96798.72;;;5.27;98.47
29239;BME280;16267;48.194;11.546;2023-11-18T06:33:37;96801.09;;;5.32;99.83
29239;BME280;16267;48.194;11.546;2023-11-18T06:36:05;96809.44;;;5.30;98.35
29239;BME280;16267;48.194;11.546;2023-11-18T06:38:32;96807.13;;;5.29;98.65
29239;BME280;16267;48.194;11.546;2023-11-18T06:41:00;96804.13;;;5.30;99.49
29239;BME280;16267;48.194;11.546;2023-11-18T06:43:30;96801.53;;;5.34;100.00
29239;BME280;16267;48.194;11.546;2023-11-18T06:46:08;96803.50;;;5.37;99.96
29239;BME280;16267;48.194;11.546;2023-11-18T06:48:36;96802.03;;;5.40;99.72
29239;BME280;16267;48.194;11.546;2023-11-18T06:51:03;96800.84;;;5.37;98.85
29239;BME280;16267;48.194;11.546;2023-11-18T06:53:30;96798.63;;;5.39;99.44
29239;BME280;16267;48.194;11.546;2023-11-18T06:55:57;96797.16;;;5.42;99.78
29239;BME280;16267;48.194;11.546;2023-11-18T06:58:23;96803.69;;;5.44;99.79
29239;BME280;16267;48.194;11.546;2023-11-18T07:00:49;96804.09;;;5.46;99.58
29239;BME280;16267;48.194;11.546;2023-11-18T07:03:15;96809.84;;;5.48;99.72
29239;BME280;16267;48.194;11.546;2023-11-18T07:05:42;96818.63;;;5.49;99.32
29239;BME280;16267;48.194;11.546;2023-11-18T07:08:10;96815.59;;;5.50;98.65
29239;BME280;16267;48.194;11.546;2023-11-18T07:10:40;96805.66;;;5.47;97.57
29239;BME280;16267;48.194;11.546;2023-11-18T07:13:06;96800.56;;;5.42;97.70
29239;BME280;16267;48.194;11.546;2023-11-18T07:15:34;96804.44;;;5.45;98.06
29239;BME280;16267;48.194;11.546;2023-11-18T07:18:02;96810.63;;;5.49;99.59
29239;BME280;16267;48.194;11.546;2023-11-18T07:20:28;96816.03;;;5.52;100.00
29239;BME280;16267;48.194;11.546;2023-11-18T07:22:54;96807.34;;;5.55;99.97
29239;BME280;16267;48.194;11.546;2023-11-18T07:25:20;96810.00;;;5.55;99.32
29239;BME280;16267;48.194;11.546;2023-11-18T07:27:47;96810.09;;;5.59;99.85
29239;BME280;16267;48.194;11.546;2023-11-18T07:30:13;96808.63;;;5.62;99.32
29239;BME280;16267;48.194;11.546;2023-11-18T07:32:40;96807.84;;;5.61;98.09
29239;BME280;16267;48.194;11.546;2023-11-18T07:35:06;96817.81;;;5.64;99.22
29239;BME280;16267;48.194;11.546;2023-11-18T07:37:36;96813.69;;;5.67;99.11
29239;BME280;16267;48.194;11.546;2023-11-18T07:40:04;96814.88;;;5.69;98.53
29239;BME280;16267;48.194;11.546;2023-11-18T07:42:34;96819.63;;;5.60;96.78
29239;BME280;16267;48.194;11.546;2023-11-18T07:45:04;96823.91;;;5.65;98.26
29239;BME280;16267;48.194;11.546;2023-11-18T07:47:31;96832.75;;;5.69;98.93
29239;BME280;16267;48.194;11.546;2023-11-18T07:49:58;96821.84;;;5.74;99.56
29239;BME280;16267;48.194;11.546;2023-11-18T07:52:26;96827.06;;;5.70;97.63
29239;BME280;16267;48.194;11.546;2023-11-18T07:54:54;96830.22;;;5.76;98.85
29239;BME280;16267;48.194;11.546;2023-11-18T07:57:20;96829.97;;;5.81;99.16
29239;BME280;16267;48.194;11.546;2023-11-18T07:59:46;96816.66;;;5.81;98.94
29239;BME280;16267;48.194;11.546;2023-11-18T08:02:12;96814.84;;;5.85;99.01
29239;BME280;16267;48.194;11.546;2023-11-18T08:04:40;96820.25;;;5.89;98.58
29239;BME280;16267;48.194;11.546;2023-11-18T08:07:07;96823.34;;;5.91;98.51
29239;BME280;16267;48.194;11.546;2023-11-18T08:09:36;96824.56;;;5.93;98.37
29239;BME280;16267;48.194;11.546;2023-11-18T08:12:06;96833.06;;;5.99;98.57
29239;BME280;16267;48.194;11.546;2023-11-18T08:14:35;96828.44;;;5.96;96.92
29239;BME280;16267;48.194;11.546;2023-11-18T08:17:01;96828.50;;;5.99;97.64
29239;BME280;16267;48.194;11.546;2023-11-18T08:19:27;96822.03;;;6.00;96.30
29239;BME280;16267;48.194;11.546;2023-11-18T08:21:54;96824.38;;;6.02;96.56
29239;BME280;16267;48.194;11.546;2023-11-18T08:24:20;96824.38;;;6.02;96.46
29239;BME280;16267;48.194;11.546;2023-11-18T08:26:47;96814.63;;;6.10;98.29
29239;BME280;16267;48.194;11.546;2023-11-18T08:29:13;96817.78;;;6.15;98.09
29239;BME280;16267;48.194;11.546;2023-11-18T08:31:39;96830.47;;;6.22;98.58
29239;BME280;16267;48.194;11.546;2023-11-18T08:34:06;96832.88;;;6.27;97.60
29239;BME280;16267;48.194;11.546;2023-11-18T08:36:32;96836.34;;;6.31;96.85
29239;BME280;16267;48.194;11.546;2023-11-18T08:38:59;96846.75;;;6.36;97.17
29239;BME280;16267;48.194;11.546;2023-11-18T08:41:26;96849.47;;;6.40;94.87
29239;BME280;16267;48.194;11.546;2023-11-18T08:43:52;96844.50;;;6.38;94.06
29239;BME280;16267;48.194;11.546;2023-11-18T08:46:19;96839.59;;;6.40;95.25
29239;BME280;16267;48.194;11.546;2023-11-18T08:48:45;96831.31;;;6.45;93.64
29239;BME280;16267;48.194;11.546;2023-11-18T08:51:13;96828.09;;;6.36;91.91
29239;BME280;16267;48.194;11.546;2023-11-18T08:53:42;96818.75;;;6.46;93.83
29239;BME280;16267;48.194;11.546;2023-11-18T08:56:09;96824.97;;;6.54;95.00
29239;BME280;16267;48.194;11.546;2023-11-18T08:58:42;96818.94;;;6.57;92.64
29239;BME280;16267;48.194;11.546;2023-11-18T09:01:08;96828.72;;;6.49;90.45
29239;BME280;16267;48.194;11.546;2023-11-18T09:03:41;96823.16;;;6.58;93.34
29239;BME280;16267;48.194;11.546;2023-11-18T09:06:16;96822.03;;;6.59;91.25
29239;BME280;16267;48.194;11.546;2023-11-18T09:08:54;96822.59;;;6.68;93.08
29239;BME280;16267;48.194;11.546;2023-11-18T09:11:22;96815.75;;;6.70;91.76
29239;BME280;16267;48.194;11.546;2023-11-18T09:13:49;96823.06;;;6.74;90.85
29239;BME280;16267;48.194;11.546;2023-11-18T09:16:20;96825.81;;;6.77;91.14
29239;BME280;16267;48.194;11.546;2023-11-18T09:18:51;96817.38;;;6.75;89.12
29239;BME280;16267;48.194;11.546;2023-11-18T09:21:17;96818.03;;;6.68;87.46
29239;BME280;16267;48.194;11.546;2023-11-18T09:23:50;96817.91;;;6.84;90.48
29239;BME280;16267;48.194;11.546;2023-11-18T09:26:17;96828.78;;;6.95;92.13
29239;BME280;16267;48.194;11.546;2023-11-18T09:28:44;96816.31;;;7.03;90.80
29239;BME280;16267;48.194;11.546;2023-11-18T09:31:11;96814.41;;;7.03;86.35
29239;BME280;16267;48.194;11.546;2023-11-18T09:33:39;96816.16;;;7.15;87.79
29239;BME280;16267;48.194;11.546;2023-11-18T09:36:07;96814.59;;;7.14;85.33
29239;BME280;16267;48.194;11.546;2023-11-18T09:38:37;96828.31;;;7.12;85.35
29239;BME280;16267;48.194;11.546;2023-11-18T09:41:07;96818.50;;;7.20;86.19
29239;BME280;16267;48.194;11.546;2023-11-18T09:43:37;96825.50;;;7.28;87.55
29239;BME280;16267;48.194;11.546;2023-11-18T09:46:11;96821.00;;;7.32;85.47
29239;BME280;16267;48.194;11.546;2023-11-18T09:51:20;96816.94;;;7.42;84.32
29239;BME280;16267;48.194;11.546;2023-11-18T09:53:53;96814.34;;;7.46;83.44
29239;BME280;16267;48.194;11.546;2023-11-18T09:59:13;96826.84;;;7.42;82.45
29239;BME280;16267;48.194;11.546;2023-11-18T10:01:43;96824.31;;;7.49;81.84
29239;BME280;16267;48.194;11.546;2023-11-18T10:04:14;96830.66;;;7.67;81.29
29239;BME280;16267;48.194;11.546;2023-11-18T10:06:45;96818.53;;;8.00;81.22
29239;BME280;16267;48.194;11.546;2023-11-18T10:09:12;96817.19;;;8.47;78.95
29239;BME280;16267;48.194;11.546;2023-11-18T10:11:44;96797.75;;;8.20;81.16
29239;BME280;16267;48.194;11.546;2023-11-18T10:14:13;96796.88;;;8.42;82.47
29239;BME280;16267;48.194;11.546;2023-11-18T10:16:43;96797.44;;;8.25;76.03
29239;BME280;16267;48.194;11.546;2023-11-18T10:19:13;96796.00;;;8.65;77.58
29239;BME280;16267;48.194;11.546;2023-11-18T10:21:40;96785.88;;;8.85;74.47
29239;BME280;16267;48.194;11.546;2023-11-18T10:24:07;96784.88;;;8.63;71.52
29239;BME280;16267;48.194;11.546;2023-11-18T10:26:55;96775.78;;;8.67;71.79
29239;BME280;16267;48.194;11.546;2023-11-18T10:29:30;96780.38;;;8.70;71.98
29239;BME280;16267;48.194;11.546;2023-11-18T10:32:06;96779.16;;;8.64;73.39
29239;BME280;16267;48.194;11.546;2023-11-18T10:34:42;96768.94;;;8.74;70.87
29239;BME280;16267;48.194;11.546;2023-11-18T10:37:09;96765.19;;;8.82;70.47
29239;BME280;16267;48.194;11.546;2023-11-18T10:39:37;96767.16;;;8.88;67.74
29239;BME280;16267;48.194;11.546;2023-11-18T10:42:03;96764.06;;;8.86;66.11
29239;BME280;16267;48.194;11.546;2023-11-18T10:44:30;96756.56;;;9.03;68.67
29239;BME280;16267;48.194;11.546;2023-11-18T10:46:57;96767.34;;;9.13;66.79
29239;BME280;16267;48.194;11.546;2023-11-18T10:49:28;96771.88;;;9.06;65.52
29239;BME280;16267;48.194;11.546;2023-11-18T10:51:55;96780.56;;;8.92;67.40
29239;BME280;16267;48.194;11.546;2023-11-18T10:54:25;96781.16;;;8.75;67.57
29239;BME280;16267;48.194;11.546;2023-11-18T10:56:53;96778.28;;;8.94;68.13
29239;BME280;16267;48.194;11.546;2023-11-18T10:59:22;96780.41;;;8.74;66.15
29239;BME280;16267;48.194;11.546;2023-11-18T11:01:49;96789.19;;;8.75;67.63
29239;BME280;16267;48.194;11.546;2023-11-18T11:04:15;96786.53;;;8.75;68.64
29239;BME280;16267;48.194;11.546;2023-11-18T11:06:51;96785.00;;;8.74;67.85
29239;BME280;16267;48.194;11.546;2023-11-18T11:09:23;96778.41;;;9.64;65.08
29239;BME280;16267;48.194;11.546;2023-11-18T11:12:08;96772.53;;;9.44;66.13
29239;BME280;16267;48.194;11.546;2023-11-18T11:14:50;96774.03;;;9.37;65.62
29239;BME280;16267;48.194;11.546;2023-11-18T11:17:21;96771.97;;;10.70;62.90
29239;BME280;16267;48.194;11.546;2023-11-18T11:20:06;96765.75;;;11.84;60.06
29239;BME280;16267;48.194;11.546;2023-11-18T11:23:21;96757.69;;;12.72;57.63
29239;BME280;16267;48.194;11.546;2023-11-18T11:29:01;96781.16;;;11.44;53.22
29239;BME280;16267;48.194;11.546;2023-11-18T11:34:20;96784.25;;;10.92;56.43
29239;BME280;16267;48.194;11.546;2023-11-18T11:36:51;96799.94;;;10.65;54.81
29239;BME280;16267;48.194;11.546;2023-11-18T11:39:20;96795.66;;;10.39;54.84
29239;BME280;16267;48.194;11.546;2023-11-18T11:41:57;96794.28;;;9.90;54.78
29239;BME280;16267;48.194;11.546;2023-11-18T11:44:25;96777.69;;;9.70;54.95
29239;BME280;16267;48.194;11.546;2023-11-18T11:46:59;96785.28;;;9.61;56.41
29239;BME280;16267;48.194;11.546;2023-11-18T11:49:36;96771.09;;;9.53;58.10
29239;BME280;16267;48.194;11.546;2023-11-18T11:54:55;96761.41;;;9.38;58.58
29239;BME280;16267;48.194;11.546;2023-11-18T11:57:22;96765.94;;;9.30;57.85
29239;BME280;16267;48.194;11.546;2023-11-18T12:02:22;96754.38;;;9.15;59.52
29239;BME280;16267;48.194;11.546;2023-11-18T12:04:56;96750.94;;;9.15;60.74
29239;BME280;16267;48.194;11.546;2023-11-18T12:07:26;96743.25;;;9.13;60.79
29239;BME280;16267;48.194;11.546;2023-11-18T12:10:01;96745.50;;;9.08;60.69
29239;BME280;16267;48.194;11.546;2023-11-18T12:12:36;96748.19;;;9.08;60.08
29239;BME280;16267;48.194;11.546;2023-11-18T12:15:02;96741.13;;;8.89;58.47
29239;BME280;16267;48.194;11.546;2023-11-18T12:20:43;96758.28;;;8.81;59.36
29239;BME280;16267;48.194;11.546;2023-11-18T12:23:23;96752.06;;;8.69;59.73
29239;BME280;16267;48.194;11.546;2023-11-18T12:25:51;96742.19;;;8.77;59.83
29239;BME280;16267;48.194;11.546;2023-11-18T12:28:24;96744.88;;;8.77;59.98
29239;BME280;16267;48.194;11.546;2023-11-18T12:30:53;96733.81;;;8.79;59.41
29239;BME280;16267;48.194;11.546;2023-11-18T12:34:00;96721.94;;;8.80;58.48
29239;BME280;16267;48.194;11.546;2023-11-18T12:39:43;96717.44;;;8.87;58.52
29239;BME280;16267;48.194;11.546;2023-11-18T12:45:30;96703.13;;;8.69;57.82
29239;BME280;16267;48.194;11.546;2023-11-18T12:48:07;96700.53;;;8.76;59.41
29239;BME280;16267;48.194;11.546;2023-11-18T12:50:57;96700.13;;;8.78;59.26
29239;BME280;16267;48.194;11.546;2023-11-18T12:53:25;96697.88;;;8.80;60.20
29239;BME280;16267;48.194;11.546;2023-11-18T12:55:52;96695.81;;;8.62;59.08
29239;BME280;16267;48.194;11.546;2023-11-18T12:58:19;96684.72;;;8.60;59.63
29239;BME280;16267;48.194;11.546;2023-11-18T13:00:51;96679.72;;;8.59;59.70
29239;BME280;16267;48.194;11.546;2023-11-18T13:03:17;96691.63;;;8.65;60.92
29239;BME280;16267;48.194;11.546;2023-11-18T13:05:44;96698.53;;;8.69;61.44
29239;BME280;16267;48.194;11.546;2023-11-18T13:08:11;96690.50;;;8.66;60.28
29239;BME280;16267;48.194;11.546;2023-11-18T13:10:37;96686.22;;;8.61;60.67
29239;BME280;16267;48.194;11.546;2023-11-18T13:13:04;96675.94;;;8.63;61.08
29239;BME280;16267;48.194;11.546;2023-11-18T13:15:32;96677.09;;;8.62;60.68
29239;BME280;16267;48.194;11.546;2023-11-18T13:18:04;96677.13;;;8.69;62.29
29239;BME280;16267;48.194;11.546;2023-11-18T13:20:34;96669.47;;;8.68;61.63
29239;BME280;16267;48.194;11.546;2023-11-18T13:23:03;96672.91;;;8.65;61.59
29239;BME280;16267;48.194;11.546;2023-11-18T13:25:36;96667.56;;;8.68;61.92
29239;BME280;16267;48.194;11.546;2023-11-18T13:28:07;96653.38;;;8.64;62.08
29239;BME280;16267;48.194;11.546;2023-11-18T13:30:35;96653.38;;;8.64;62.38
29239;BME280;16267;48.194;11.546;2023-11-18T13:33:07;96648.00;;;8.57;61.16
29239;BME280;16267;48.194;11.546;2023-11-18T13:35:34;96649.16;;;8.60;62.71
29239;BME280;16267;48.194;11.546;2023-11-18T13:38:02;96659.09;;;8.59;62.26